This is the latest recevied weather packets stored in our database for station/object WX8ASH-13. If no packets are shown the sender has not sent any weather packets the latest 10 day(s).
| Time | Temp. | Humidity | Pressure | Rain* | Wind** | Luminosity | Snow |
|---|---|---|---|---|---|---|---|
| 1777854928 | 11.67° C | 64% | 1014 hPa | 0 mm | - | - | - |
| 1777854628 | 12.22° C | 62% | 1014 hPa | 0 mm | - | - | - |
| 1777854328 | 12.78° C | 59% | 1013.9 hPa | 0 mm | - | - | - |
| 1777854027 | 13.33° C | 55% | 1013.7 hPa | 0 mm | - | - | - |
| 1777853727 | 13.33° C | 50% | 1013.4 hPa | 0 mm | - | - | - |
| 1777853428 | 13.33° C | 49% | 1013.4 hPa | 0 mm | - | - | - |
| 1777853127 | 13.89° C | 49% | 1013.4 hPa | 0 mm | - | - | - |
| 1777852827 | 13.89° C | 48% | 1013.3 hPa | 0 mm | - | - | - |
| 1777852527 | 13.89° C | 51% | 1013.4 hPa | 0 mm | - | - | - |
| 1777852227 | 13.89° C | 50% | 1013.4 hPa | 0 mm | - | - | - |
| 1777851926 | 13.89° C | 49% | 1013.5 hPa | 0 mm | - | - | - |
| 1777851626 | 13.89° C | 50% | 1013.5 hPa | 0 mm | - | - | - |
| 1777851327 | 13.89° C | 49% | 1013.5 hPa | 0 mm | - | - | - |
| 1777851026 | 13.89° C | 49% | 1013.6 hPa | 0 mm | - | - | - |
| 1777850725 | 13.89° C | 50% | 1013.6 hPa | 0 mm | - | - | - |
| 1777850426 | 13.89° C | 49% | 1013.5 hPa | 0 mm | - | - | - |
| 1777850125 | 14.44° C | 49% | 1013.6 hPa | 0 mm | - | - | - |
| 1777849826 | 14.44° C | 48% | 1013.6 hPa | 0 mm | - | - | - |
| 1777849526 | 14.44° C | 49% | 1013.7 hPa | 0 mm | - | - | - |
| 1777849226 | 14.44° C | 48% | 1013.9 hPa | 0 mm | - | - | - |
| 1777848925 | 14.44° C | 47% | 1013.7 hPa | 0 mm | - | - | - |
| 1777848625 | 14.44° C | 48% | 1013.7 hPa | 0 mm | - | - | - |
| 1777848325 | 14.44° C | 48% | 1013.7 hPa | 0 mm | - | - | - |
| 1777848025 | 14.44° C | 48% | 1013.9 hPa | 0 mm | - | - | - |
| 1777847724 | 14.44° C | 48% | 1013.9 hPa | 0 mm | - | - | - |
* Rain latest hour (hover to see other rain measurements)
** Current wind speed in m/s (hover to see current wind gust speed)